Providence, Rhode Island
Traffic Map
Current Weather Conditions
Providence, Rhode Island
Broken Clouds
Broken Clouds
40°
Feels Like: 40°
Wind Chill: 40° Ceiling: 4500
Heat Index: 40° Visibility: 8mi
Dew Point: 37° Wind: 0mph
Humidity: 89% Direction: ° ()
Pressure: 29.75in Gusts: 0mph
Raw Report DataKPVD 272351Z 00000KT 8SM BKN045 BKN140 04/03 A2975 RMK AO2 PRESRR SLP073 60000 T00440028 10061 20044 53014
Traffic Incident Summary
Active as of:
Severity:
Category:
InformationThere was an issue retrieving the traffic information for this location. Please try a different location or try again shortly.
Advertisements
Track Severe Weather on mobile